Time;durP1;ratioP1;P1;durP2;ratioP2;P2;SDS_P1;SDS_P2;PMS_P1;PMS_P2;Temp;Humidity;BMP_temperature;BMP_pressure;BME280_temperature;BME280_humidity;BME280_pressure;Samples;Min_cycle;Max_cycle;Signal;HPM_P1;HPM_P2
2022/11/07 00:01:34;;;;;;;6.38;2.72;;;;;;;;;;7388407;19;20003;-71
2022/11/07 00:04:00;;;;;;;5.63;2.80;;;;;;;;;;7390381;19;20471;-71
2022/11/07 00:06:28;;;;;;;6.50;3.13;;;;;;;;;;7391023;19;20010;-71
2022/11/07 00:08:54;;;;;;;7.53;2.95;;;;;;;;;;7387830;19;20006;-72
2022/11/07 00:11:20;;;;;;;6.00;2.75;;;;;;;;;;7388509;19;20389;-69
2022/11/07 00:13:45;;;;;;;5.13;2.67;;;;;;;;;;7389690;19;20028;-70
2022/11/07 00:16:11;;;;;;;5.88;2.75;;;;;;;;;;7388087;19;20064;-70
2022/11/07 00:18:36;;;;;;;5.30;2.83;;;;;;;;;;7393366;19;20013;-70
2022/11/07 00:21:08;;;;;;;4.97;2.85;;;;;;;;;;7395032;19;20018;-70
2022/11/07 00:23:33;;;;;;;;;;;;;;;;;;7394332;19;20011;-70
2022/11/07 00:26:04;;;;;;;6.93;3.03;;;;;;;;;;7397645;19;19915;-70
2022/11/07 00:28:32;;;;;;;7.65;2.95;;;;;;;;;;7398353;19;19999;-70
2022/11/07 00:30:58;;;;;;;6.43;3.13;;;;;;;;;;7395261;19;20042;-71
2022/11/07 00:33:24;;;;;;;10.98;3.72;;;;;;;;;;7393163;19;20357;-71
2022/11/07 00:35:49;;;;;;;7.05;3.35;;;;;;;;;;7396118;19;20003;-70
2022/11/07 00:38:14;;;;;;;6.20;3.03;;;;;;;;;;7395504;19;19994;-70
2022/11/07 00:40:39;;;;;;;6.75;3.53;;;;;;;;;;7398092;19;20059;-70
2022/11/07 00:43:05;;;;;;;7.95;3.88;;;;;;;;;;7392141;19;19994;-70
2022/11/07 00:45:30;;;;;;;6.13;3.05;;;;;;;;;;7395633;19;20002;-70
2022/11/07 00:47:55;;;;;;;7.18;3.47;;;;;;;;;;7394391;19;20018;-70
2022/11/07 00:50:21;;;;;;;10.07;3.70;;;;;;;;;;7396730;19;20072;-70
2022/11/07 00:52:46;;;;;;;9.20;3.53;;;;;;;;;;7395430;19;20058;-70
2022/11/07 00:55:11;;;;;;;6.15;3.53;;;;;;;;;;7392691;19;20119;-70
2022/11/07 00:57:37;;;;;;;12.00;3.63;;;;;;;;;;7392644;19;20007;-70
2022/11/07 01:00:03;;;;;;;10.18;3.70;;;;;;;;;;7395755;19;19995;-72
2022/11/07 01:02:28;;;;;;;9.85;3.55;;;;;;;;;;7394900;19;20006;-70
2022/11/07 01:05:09;;;;;;;9.25;3.80;;;;;;;;;;7393818;19;19990;-70
2022/11/07 01:07:34;;;;;;;8.47;3.83;;;;;;;;;;7394775;19;20010;-70
2022/11/07 01:10:00;;;;;;;8.40;3.60;;;;;;;;;;7394030;19;20010;-70
2022/11/07 01:12:25;;;;;;;6.07;3.65;;;;;;;;;;7394585;19;20003;-70
2022/11/07 01:14:50;;;;;;;7.05;3.70;;;;;;;;;;7393256;19;20344;-70
2022/11/07 01:17:16;;;;;;;12.27;4.40;;;;;;;;;;7391533;19;20030;-71
2022/11/07 01:19:41;;;;;;;5.80;3.28;;;;;;;;;;7394115;19;20006;-71
2022/11/07 01:22:06;;;;;;;7.70;3.40;;;;;;;;;;7393888;19;20082;-71
2022/11/07 01:24:32;;;;;;;6.47;3.33;;;;;;;;;;7396303;19;20216;-71
2022/11/07 01:26:57;;;;;;;9.23;3.92;;;;;;;;;;7392804;19;19998;-71
2022/11/07 01:29:22;;;;;;;11.50;4.05;;;;;;;;;;7390203;19;19995;-71
2022/11/07 01:31:48;;;;;;;10.88;3.75;;;;;;;;;;7394822;19;20026;-71
2022/11/07 01:34:13;;;;;;;9.18;3.80;;;;;;;;;;7395340;19;19995;-71
2022/11/07 01:36:38;;;;;;;7.15;3.70;;;;;;;;;;7394904;19;20006;-71
2022/11/07 01:39:04;;;;;;;6.93;3.88;;;;;;;;;;7392224;19;20006;-71
2022/11/07 01:41:33;;;;;;;7.70;3.92;;;;;;;;;;7392200;19;20019;-71
2022/11/07 01:44:06;;;;;;;9.30;3.92;;;;;;;;;;7394245;19;20066;-70
2022/11/07 01:46:34;;;;;;;8.27;4.07;;;;;;;;;;7395340;19;20344;-70
2022/11/07 01:49:22;;;;;;;7.90;4.10;;;;;;;;;;7392142;19;20003;-70
2022/11/07 01:51:59;;;;;;;7.97;4.07;;;;;;;;;;7392867;19;20115;-71
2022/11/07 01:54:28;;;;;;;12.30;4.10;;;;;;;;;;7393467;19;20018;-71
2022/11/07 01:56:57;;;;;;;9.52;3.95;;;;;;;;;;7393582;19;20024;-71
2022/11/07 01:59:27;;;;;;;7.72;3.75;;;;;;;;;;7392018;19;20006;-70
2022/11/07 02:01:53;;;;;;;9.93;4.30;;;;;;;;;;7393139;19;20013;-71
2022/11/07 02:04:22;;;;;;;10.25;4.30;;;;;;;;;;7394318;19;20240;-71
2022/11/07 02:06:53;;;;;;;7.40;3.78;;;;;;;;;;7395196;19;20001;-71
2022/11/07 02:09:18;;;;;;;11.77;4.05;;;;;;;;;;7392152;19;20002;-71
2022/11/07 02:11:44;;;;;;;7.53;3.67;;;;;;;;;;7390621;19;20002;-70
2022/11/07 02:14:16;;;;;;;7.40;3.42;;;;;;;;;;7393580;19;19995;-71
2022/11/07 02:16:42;;;;;;;7.72;3.78;;;;;;;;;;7393618;19;20042;-72
2022/11/07 02:19:16;;;;;;;11.57;4.32;;;;;;;;;;7390884;19;20736;-71
2022/11/07 02:21:50;;;;;;;8.25;3.83;;;;;;;;;;7391836;19;20018;-71
2022/11/07 02:24:23;;;;;;;7.60;4.22;;;;;;;;;;7393194;19;19999;-71
2022/11/07 02:26:51;;;;;;;8.52;3.78;;;;;;;;;;7394582;19;19991;-71
2022/11/07 02:29:16;;;;;;;11.63;4.45;;;;;;;;;;7391251;19;20003;-71
2022/11/07 02:31:42;;;;;;;8.25;4.13;;;;;;;;;;7389609;19;20002;-71
2022/11/07 02:34:07;;;;;;;11.40;4.80;;;;;;;;;;7392228;19;20072;-71
2022/11/07 02:36:32;;;;;;;10.57;4.63;;;;;;;;;;7393134;19;19991;-71
2022/11/07 02:38:58;;;;;;;9.35;5.03;;;;;;;;;;7390965;19;20086;-72
2022/11/07 02:41:33;;;;;;;11.02;4.30;;;;;;;;;;7389038;19;20033;-71
2022/11/07 02:44:07;;;;;;;10.15;4.35;;;;;;;;;;7392447;19;20008;-72
2022/11/07 02:46:33;;;;;;;8.32;4.57;;;;;;;;;;7393802;19;20344;-71
2022/11/07 02:49:00;;;;;;;10.50;4.75;;;;;;;;;;7390369;19;20070;-71
2022/11/07 02:51:26;;;;;;;11.00;4.80;;;;;;;;;;7391856;19;19996;-72
2022/11/07 02:53:52;;;;;;;9.90;4.65;;;;;;;;;;7391958;19;20022;-70
2022/11/07 02:56:18;;;;;;;12.35;4.43;;;;;;;;;;7391233;19;19995;-70
2022/11/07 02:58:43;;;;;;;11.23;4.57;;;;;;;;;;7391968;19;20097;-70
2022/11/07 03:01:09;;;;;;;8.45;3.90;;;;;;;;;;7389156;19;19998;-71
2022/11/07 03:03:41;;;;;;;8.90;4.00;;;;;;;;;;7388956;19;20005;-71
2022/11/07 03:06:09;;;;;;;9.63;4.10;;;;;;;;;;7391611;19;20065;-72
2022/11/07 03:08:34;;;;;;;9.75;4.20;;;;;;;;;;7392112;19;20026;-72
2022/11/07 03:11:00;;;;;;;8.95;4.18;;;;;;;;;;7386249;19;20022;-73
2022/11/07 03:13:26;;;;;;;7.72;4.15;;;;;;;;;;7388353;19;20006;-71
2022/11/07 03:15:52;;;;;;;8.82;4.18;;;;;;;;;;7390489;19;20019;-70
2022/11/07 03:18:18;;;;;;;9.00;4.10;;;;;;;;;;7391601;19;20002;-72
2022/11/07 03:20:43;;;;;;;6.20;3.60;;;;;;;;;;7392150;19;20003;-70
2022/11/07 03:23:09;;;;;;;7.90;4.10;;;;;;;;;;7387225;19;20013;-71
2022/11/07 03:25:34;;;;;;;8.07;3.95;;;;;;;;;;7390001;19;20090;-72
2022/11/07 03:27:59;;;;;;;6.85;3.80;;;;;;;;;;7390696;19;20015;-71
2022/11/07 03:30:25;;;;;;;6.82;4.20;;;;;;;;;;7391290;19;19998;-71
2022/11/07 03:32:51;;;;;;;12.10;4.20;;;;;;;;;;7386462;19;19991;-72
2022/11/07 03:35:17;;;;;;;8.65;3.70;;;;;;;;;;7388884;19;19995;-71
2022/11/07 03:37:47;;;;;;;8.38;4.10;;;;;;;;;;7388339;19;20026;-71
2022/11/07 03:40:13;;;;;;;8.93;3.97;;;;;;;;;;7389776;19;20100;-71
2022/11/07 03:42:39;;;;;;;11.57;4.00;;;;;;;;;;7389919;19;20430;-70
2022/11/07 03:45:06;;;;;;;7.13;3.83;;;;;;;;;;7388767;19;20058;-71
2022/11/07 03:47:34;;;;;;;8.73;3.53;;;;;;;;;;7388943;19;20006;-71
2022/11/07 03:50:00;;;;;;;6.20;3.80;;;;;;;;;;7389650;19;20550;-70
2022/11/07 03:52:25;;;;;;;8.60;3.70;;;;;;;;;;7390756;19;19999;-72
2022/11/07 03:54:50;;;;;;;8.43;3.33;;;;;;;;;;7393690;19;19995;-71
2022/11/07 03:57:16;;;;;;;8.80;3.22;;;;;;;;;;7394386;19;20028;-70
2022/11/07 03:59:41;;;;;;;7.80;3.33;;;;;;;;;;7396543;19;20350;-71
2022/11/07 04:02:06;;;;;;;6.45;3.20;;;;;;;;;;7393388;19;19995;-72
2022/11/07 04:04:32;;;;;;;11.77;4.05;;;;;;;;;;7392770;19;19995;-71
2022/11/07 04:06:57;;;;;;;9.30;3.65;;;;;;;;;;7398728;19;20677;-70
2022/11/07 04:09:22;;;;;;;8.13;3.45;;;;;;;;;;7398066;19;19999;-71
2022/11/07 04:17:18;;;;;;;7.40;3.45;;;;;;;;;;7394745;19;20039;-71
2022/11/07 04:19:48;;;;;;;8.77;3.28;;;;;;;;;;7396960;19;20003;-71
2022/11/07 04:22:14;;;;;;;4.82;2.80;;;;;;;;;;7396150;19;20007;-72
2022/11/07 04:24:43;;;;;;;7.65;3.13;;;;;;;;;;7397442;19;20054;-72
2022/11/07 04:29:54;;;;;;;7.28;3.70;;;;;;;;;;7397317;19;20026;-70
2022/11/07 04:32:20;;;;;;;11.30;3.30;;;;;;;;;;7394006;19;19994;-71
2022/11/07 04:34:45;;;;;;;8.32;3.33;;;;;;;;;;7395579;19;19995;-69
2022/11/07 04:37:11;;;;;;;9.82;3.25;;;;;;;;;;7395913;19;20194;-72
2022/11/07 04:39:36;;;;;;;6.38;3.47;;;;;;;;;;7396744;19;20012;-70
2022/11/07 04:42:01;;;;;;;8.23;3.53;;;;;;;;;;7395339;19;20448;-70
2022/11/07 04:44:27;;;;;;;7.18;3.60;;;;;;;;;;7397281;19;20019;-70
2022/11/07 04:46:52;;;;;;;8.27;3.78;;;;;;;;;;7397117;19;20486;-68
2022/11/07 04:49:17;;;;;;;12.60;3.42;;;;;;;;;;7394664;19;19995;-70
2022/11/07 04:51:43;;;;;;;7.30;3.10;;;;;;;;;;7392935;19;20483;-69
2022/11/07 04:54:12;;;;;;;7.88;3.60;;;;;;;;;;7396457;19;20313;-70
2022/11/07 04:56:38;;;;;;;5.78;3.13;;;;;;;;;;7394851;19;20040;-70
2022/11/07 04:59:04;;;;;;;6.07;3.20;;;;;;;;;;7394100;19;20010;-69
2022/11/07 05:01:29;;;;;;;8.20;3.17;;;;;;;;;;7394854;19;19998;-70
2022/11/07 05:03:54;;;;;;;8.15;3.28;;;;;;;;;;7393994;19;20001;-70
2022/11/07 05:06:20;;;;;;;7.75;3.55;;;;;;;;;;7393148;19;20002;-70
2022/11/07 05:08:46;;;;;;;8.50;2.92;;;;;;;;;;7396062;19;20035;-69
2022/11/07 05:11:11;;;;;;;7.97;2.97;;;;;;;;;;7389214;19;20016;-71
2022/11/07 05:13:36;;;;;;;5.50;3.05;;;;;;;;;;7391245;19;20401;-69
2022/11/07 05:16:02;;;;;;;8.55;3.13;;;;;;;;;;7394731;19;19995;-68
2022/11/07 05:18:27;;;;;;;8.23;3.72;;;;;;;;;;7395968;19;19999;-70
2022/11/07 05:20:52;;;;;;;6.72;3.03;;;;;;;;;;7392787;19;20081;-70
2022/11/07 05:23:18;;;;;;;6.40;3.17;;;;;;;;;;7390653;19;19998;-70
2022/11/07 05:25:48;;;;;;;7.18;3.17;;;;;;;;;;7393167;19;20015;-69
2022/11/07 05:28:22;;;;;;;6.60;3.20;;;;;;;;;;7392680;19;20003;-69
2022/11/07 05:30:48;;;;;;;5.70;2.92;;;;;;;;;;7393515;19;19995;-70
2022/11/07 05:33:15;;;;;;;7.40;3.38;;;;;;;;;;7390106;19;20340;-69
2022/11/07 05:35:41;;;;;;;7.68;2.92;;;;;;;;;;7392966;19;20759;-70
2022/11/07 05:38:07;;;;;;;5.68;3.15;;;;;;;;;;7391575;19;20008;-69
2022/11/07 05:40:36;;;;;;;7.78;3.25;;;;;;;;;;7394772;19;19991;-71
2022/11/07 05:43:03;;;;;;;6.75;2.95;;;;;;;;;;7389721;19;20058;-69
2022/11/07 05:45:29;;;;;;;8.10;2.83;;;;;;;;;;7392641;19;20373;-70
2022/11/07 05:47:59;;;;;;;4.72;2.47;;;;;;;;;;7393482;19;20006;-70
2022/11/07 05:50:25;;;;;;;10.55;2.90;;;;;;;;;;7394366;19;19998;-71
2022/11/07 05:52:50;;;;;;;7.97;2.60;;;;;;;;;;7388969;19;20075;-69
2022/11/07 05:55:16;;;;;;;10.07;3.13;;;;;;;;;;7392106;19;19999;-69
2022/11/07 05:57:41;;;;;;;8.50;2.97;;;;;;;;;;7388598;19;19998;-70
2022/11/07 06:00:09;;;;;;;7.82;2.78;;;;;;;;;;7393337;19;20006;-69
2022/11/07 06:02:34;;;;;;;7.93;2.50;;;;;;;;;;7392286;19;20003;-69
2022/11/07 06:04:59;;;;;;;4.88;2.63;;;;;;;;;;7391566;19;20001;-70
2022/11/07 06:07:25;;;;;;;8.23;2.58;;;;;;;;;;7388974;19;19994;-72
2022/11/07 06:09:50;;;;;;;4.82;2.70;;;;;;;;;;7388544;19;19991;-71
2022/11/07 06:12:16;;;;;;;6.90;2.55;;;;;;;;;;7388922;19;19998;-70
2022/11/07 06:14:41;;;;;;;7.18;2.90;;;;;;;;;;7391187;19;20002;-69
2022/11/07 06:17:06;;;;;;;8.25;2.83;;;;;;;;;;7390345;19;20015;-70
2022/11/07 06:19:32;;;;;;;7.90;2.40;;;;;;;;;;7393556;19;19990;-70
2022/11/07 06:22:00;;;;;;;5.50;2.40;;;;;;;;;;7392367;19;19998;-70
2022/11/07 06:24:25;;;;;;;7.75;2.10;;;;;;;;;;7392578;19;20007;-69
2022/11/07 06:26:50;;;;;;;9.32;2.50;;;;;;;;;;7393391;19;20294;-70
2022/11/07 06:29:16;;;;;;;9.48;2.28;;;;;;;;;;7393036;19;20021;-69
2022/11/07 06:31:41;;;;;;;6.78;2.28;;;;;;;;;;7392018;19;20005;-69
2022/11/07 06:34:06;;;;;;;5.65;2.28;;;;;;;;;;7393462;19;19999;-71
2022/11/07 06:36:32;;;;;;;4.70;2.28;;;;;;;;;;7392427;19;20074;-70
2022/11/07 06:38:57;;;;;;;4.13;2.00;;;;;;;;;;7392177;19;19995;-71
2022/11/07 06:41:22;;;;;;;5.57;2.33;;;;;;;;;;7369011;19;20002;-72
2022/11/07 06:43:50;;;;;;;12.68;2.60;;;;;;;;;;7392732;19;20114;-70
2022/11/07 06:46:18;;;;;;;5.00;2.30;;;;;;;;;;7392834;19;20456;-71
2022/11/07 06:48:43;;;;;;;5.32;2.33;;;;;;;;;;7392974;19;20001;-70
2022/11/07 06:51:09;;;;;;;8.98;2.55;;;;;;;;;;7391641;19;20002;-69
2022/11/07 06:53:35;;;;;;;7.13;2.00;;;;;;;;;;7391087;19;20006;-70
2022/11/07 06:56:02;;;;;;;6.45;2.50;;;;;;;;;;7389916;19;20131;-70
2022/11/07 06:58:28;;;;;;;6.65;2.40;;;;;;;;;;7390863;19;20001;-69
2022/11/07 07:00:57;;;;;;;7.28;2.20;;;;;;;;;;7389143;19;20066;-69
2022/11/07 07:03:23;;;;;;;7.28;2.47;;;;;;;;;;7391208;19;20019;-69
2022/11/07 07:05:48;;;;;;;8.45;2.40;;;;;;;;;;7392543;19;19994;-70
2022/11/07 07:08:13;;;;;;;7.20;2.10;;;;;;;;;;7392009;19;19999;-69
2022/11/07 07:10:43;;;;;;;5.95;2.75;;;;;;;;;;7391998;19;20404;-70
2022/11/07 07:13:09;;;;;;;7.97;2.10;;;;;;;;;;7387962;19;20006;-69
2022/11/07 07:15:35;;;;;;;9.77;2.00;;;;;;;;;;7391739;19;20088;-70
2022/11/07 07:18:01;;;;;;;9.15;2.20;;;;;;;;;;7388351;19;20516;-70
2022/11/07 07:20:28;;;;;;;5.93;1.92;;;;;;;;;;7389308;19;20005;-70
2022/11/07 07:22:53;;;;;;;10.13;2.33;;;;;;;;;;7389060;19;19999;-69
2022/11/07 07:25:18;;;;;;;7.28;2.13;;;;;;;;;;7390894;19;20029;-70
2022/11/07 07:27:44;;;;;;;7.15;1.90;;;;;;;;;;7389335;19;19998;-69
2022/11/07 07:30:10;;;;;;;3.70;1.60;;;;;;;;;;7390663;19;19995;-72
2022/11/07 07:32:35;;;;;;;5.28;2.20;;;;;;;;;;7389005;19;20040;-70
2022/11/07 07:35:01;;;;;;;7.55;2.47;;;;;;;;;;7391067;19;20003;-69
2022/11/07 07:37:26;;;;;;;8.95;1.83;;;;;;;;;;7387759;19;19998;-70
2022/11/07 07:39:55;;;;;;;6.72;2.13;;;;;;;;;;7388019;19;20014;-70
2022/11/07 07:42:20;;;;;;;7.18;2.13;;;;;;;;;;7389165;19;20016;-71
2022/11/07 07:44:45;;;;;;;5.50;1.85;;;;;;;;;;7391068;19;19995;-69
2022/11/07 07:47:10;;;;;;;5.55;1.75;;;;;;;;;;7388862;19;20002;-70
2022/11/07 07:49:36;;;;;;;3.65;2.10;;;;;;;;;;7388507;19;20086;-70
2022/11/07 07:52:01;;;;;;;5.43;2.00;;;;;;;;;;7388743;19;19999;-69
2022/11/07 07:54:26;;;;;;;7.57;2.40;;;;;;;;;;7390070;19;20006;-69
2022/11/07 07:56:52;;;;;;;7.65;2.00;;;;;;;;;;7388295;19;19998;-69
2022/11/07 07:59:17;;;;;;;5.82;1.80;;;;;;;;;;7389043;19;20022;-70
2022/11/07 08:01:42;;;;;;;3.80;1.60;;;;;;;;;;7389534;19;20019;-70
2022/11/07 08:04:08;;;;;;;5.53;1.60;;;;;;;;;;7389535;19;20054;-68
2022/11/07 08:06:34;;;;;;;4.70;2.05;;;;;;;;;;7390005;19;19994;-69
2022/11/07 08:08:59;;;;;;;3.28;1.67;;;;;;;;;;7386920;19;20478;-70
2022/11/07 08:11:25;;;;;;;5.28;1.88;;;;;;;;;;7388985;19;20006;-71
2022/11/07 08:13:50;;;;;;;5.60;2.10;;;;;;;;;;7380065;19;20013;-69
2022/11/07 08:16:16;;;;;;;9.60;2.20;;;;;;;;;;7387593;19;20003;-69
2022/11/07 08:18:41;;;;;;;7.68;1.80;;;;;;;;;;7390346;19;19999;-70
2022/11/07 08:21:07;;;;;;;6.65;1.98;;;;;;;;;;7388233;19;20003;-69
2022/11/07 08:23:33;;;;;;;9.50;2.00;;;;;;;;;;7387614;19;20415;-68
2022/11/07 08:25:59;;;;;;;7.57;2.30;;;;;;;;;;7388759;19;20010;-68
2022/11/07 08:28:27;;;;;;;9.35;2.00;;;;;;;;;;7389736;19;20048;-70
2022/11/07 08:31:04;;;;;;;8.85;1.95;;;;;;;;;;7385964;19;20002;-70
2022/11/07 08:33:30;;;;;;;8.43;2.10;;;;;;;;;;7387701;19;20006;-69
2022/11/07 08:35:59;;;;;;;5.53;1.67;;;;;;;;;;7384953;19;20010;-70
2022/11/07 08:38:25;;;;;;;7.63;1.95;;;;;;;;;;7389418;19;20011;-69
2022/11/07 08:40:50;;;;;;;5.85;1.80;;;;;;;;;;7394695;19;20021;-69
2022/11/07 08:43:17;;;;;;;7.53;2.20;;;;;;;;;;7393768;19;20021;-69
2022/11/07 08:45:43;;;;;;;7.50;1.80;;;;;;;;;;7396310;19;20170;-69
2022/11/07 08:48:08;;;;;;;5.40;2.00;;;;;;;;;;7395236;19;20062;-69
2022/11/07 08:50:34;;;;;;;5.10;1.98;;;;;;;;;;7396956;19;19999;-70
2022/11/07 08:52:59;;;;;;;4.63;1.92;;;;;;;;;;7391841;19;19999;-69
2022/11/07 08:55:24;;;;;;;4.50;1.67;;;;;;;;;;7395575;19;20013;-69
2022/11/07 08:57:50;;;;;;;6.05;1.75;;;;;;;;;;7394036;19;20438;-69
2022/11/07 09:00:15;;;;;;;5.43;1.70;;;;;;;;;;7395469;19;20334;-69
2022/11/07 09:02:41;;;;;;;8.07;2.10;;;;;;;;;;7393328;19;20013;-70
2022/11/07 09:05:07;;;;;;;10.23;1.85;;;;;;;;;;7396148;19;20003;-68
2022/11/07 09:07:33;;;;;;;5.35;2.22;;;;;;;;;;7394652;19;20015;-69
2022/11/07 09:09:58;;;;;;;6.25;1.70;;;;;;;;;;7393729;19;20014;-68
2022/11/07 09:12:24;;;;;;;5.53;1.63;;;;;;;;;;7389828;19;20011;-68
2022/11/07 09:14:49;;;;;;;4.20;1.77;;;;;;;;;;7394223;19;20364;-67
2022/11/07 09:17:16;;;;;;;4.13;1.58;;;;;;;;;;7392145;19;20463;-68
2022/11/07 09:19:42;;;;;;;6.88;1.90;;;;;;;;;;7393484;19;20013;-69
2022/11/07 09:22:07;;;;;;;7.68;1.63;;;;;;;;;;7389000;19;20018;-69
2022/11/07 09:24:32;;;;;;;8.07;1.73;;;;;;;;;;7391619;19;20010;-69
2022/11/07 09:26:58;;;;;;;6.85;1.92;;;;;;;;;;7391007;19;20003;-70
2022/11/07 09:29:26;;;;;;;5.25;1.67;;;;;;;;;;7391187;19;19995;-70
2022/11/07 09:31:51;;;;;;;9.65;1.70;;;;;;;;;;7391640;19;20105;-70
2022/11/07 09:34:17;;;;;;;4.38;1.50;;;;;;;;;;7394753;19;20463;-69
2022/11/07 09:36:42;;;;;;;8.85;1.67;;;;;;;;;;7394582;19;19986;-70
2022/11/07 09:39:07;;;;;;;3.35;1.30;;;;;;;;;;7391468;19;20118;-70
2022/11/07 09:41:41;;;;;;;5.97;1.70;;;;;;;;;;7392714;19;20116;-69
2022/11/07 09:44:07;;;;;;;6.25;1.60;;;;;;;;;;7394273;19;20018;-69
2022/11/07 09:46:58;;;;;;;5.65;1.73;;;;;;;;;;7392030;19;19999;-70
2022/11/07 09:49:45;;;;;;;4.53;1.77;;;;;;;;;;7391028;19;20018;-69
2022/11/07 09:52:24;;;;;;;10.02;1.80;;;;;;;;;;7392648;19;19995;-70
2022/11/07 09:55:01;;;;;;;8.25;1.90;;;;;;;;;;7391415;19;20070;-69
2022/11/07 09:57:29;;;;;;;9.13;2.05;;;;;;;;;;7390772;19;20002;-69
2022/11/07 10:00:03;;;;;;;7.47;1.95;;;;;;;;;;7392532;19;20019;-69
2022/11/07 10:02:36;;;;;;;6.80;2.13;;;;;;;;;;7392124;19;20001;-71
2022/11/07 10:05:03;;;;;;;6.45;1.88;;;;;;;;;;7391495;19;20042;-70
2022/11/07 10:07:45;;;;;;;6.15;1.73;;;;;;;;;;7392943;19;20074;-70
2022/11/07 10:10:19;;;;;;;10.18;2.00;;;;;;;;;;7393050;19;20018;-70
2022/11/07 10:13:12;;;;;;;5.72;1.58;;;;;;;;;;7392031;19;19995;-70
2022/11/07 10:16:07;;;;;;;8.27;1.98;;;;;;;;;;7391621;19;19995;-70
2022/11/07 10:18:45;;;;;;;5.72;1.70;;;;;;;;;;7394451;19;19998;-70
2022/11/07 10:21:24;;;;;;;8.10;1.90;;;;;;;;;;7389737;19;19991;-70
2022/11/07 10:24:27;;;;;;;5.93;2.10;;;;;;;;;;7391140;19;20009;-70
2022/11/07 10:26:52;;;;;;;6.60;1.67;;;;;;;;;;7390294;19;20514;-70
2022/11/07 10:29:20;;;;;;;5.18;1.80;;;;;;;;;;7392738;19;20003;-70
2022/11/07 10:31:53;;;;;;;5.47;1.80;;;;;;;;;;7388381;19;20006;-70
2022/11/07 10:34:24;;;;;;;12.70;2.08;;;;;;;;;;7391627;19;20002;-69
2022/11/07 10:36:50;;;;;;;7.35;1.90;;;;;;;;;;7389666;19;19999;-70
2022/11/07 10:39:18;;;;;;;5.35;1.88;;;;;;;;;;7391600;19;20005;-70
2022/11/07 10:41:58;;;;;;;8.55;1.95;;;;;;;;;;7391102;19;20002;-70
2022/11/07 10:44:26;;;;;;;5.23;1.57;;;;;;;;;;7393317;19;20104;-69
2022/11/07 10:46:52;;;;;;;8.27;1.73;;;;;;;;;;7389737;19;20306;-69
2022/11/07 10:49:25;;;;;;;5.57;1.63;;;;;;;;;;7389157;19;20076;-69
2022/11/07 10:51:51;;;;;;;5.60;1.80;;;;;;;;;;7391036;19;20023;-70
2022/11/07 10:54:29;;;;;;;6.38;1.58;;;;;;;;;;7368222;19;20029;-69
2022/11/07 10:57:10;;;;;;;7.18;1.75;;;;;;;;;;7388110;19;19995;-70
2022/11/07 10:59:38;;;;;;;7.22;1.45;;;;;;;;;;7390508;19;20002;-70
2022/11/07 11:02:21;;;;;;;5.72;1.70;;;;;;;;;;7388004;19;20010;-69
2022/11/07 11:04:58;;;;;;;5.80;1.63;;;;;;;;;;7391719;19;20653;-69
2022/11/07 11:07:25;;;;;;;6.15;1.70;;;;;;;;;;7392688;19;19999;-69
2022/11/07 11:09:57;;;;;;;10.23;1.70;;;;;;;;;;7389491;19;20344;-70
2022/11/07 11:12:29;;;;;;;8.02;1.83;;;;;;;;;;7388071;19;20013;-69
2022/11/07 11:15:13;;;;;;;4.80;1.50;;;;;;;;;;7387848;19;20003;-70
2022/11/07 11:17:38;;;;;;;9.45;1.63;;;;;;;;;;7388204;19;20198;-70
2022/11/07 11:20:05;;;;;;;5.57;1.55;;;;;;;;;;7390005;19;20022;-70
2022/11/07 11:22:40;;;;;;;6.50;1.95;;;;;;;;;;7388815;19;19995;-71
2022/11/07 11:25:19;;;;;;;5.97;1.70;;;;;;;;;;7387207;19;19994;-71
2022/11/07 11:27:47;;;;;;;8.80;1.75;;;;;;;;;;7390148;19;19994;-69
2022/11/07 11:30:19;;;;;;;4.35;1.40;;;;;;;;;;7390411;19;20010;-70
2022/11/07 11:32:51;;;;;;;6.47;1.75;;;;;;;;;;7390280;19;19998;-70
2022/11/07 11:35:44;;;;;;;3.78;1.70;;;;;;;;;;7388835;19;19998;-69
2022/11/07 11:38:21;;;;;;;9.40;2.30;;;;;;;;;;7389273;19;19997;-69
2022/11/07 11:41:19;;;;;;;5.70;1.50;;;;;;;;;;7391259;19;19994;-69
2022/11/07 11:43:59;;;;;;;8.07;1.90;;;;;;;;;;7386913;19;20003;-70
2022/11/07 11:46:32;;;;;;;5.40;1.73;;;;;;;;;;7391291;19;19999;-69
2022/11/07 11:49:10;;;;;;;7.10;1.85;;;;;;;;;;7387323;19;19990;-69
2022/11/07 11:51:48;;;;;;;5.80;1.70;;;;;;;;;;7389645;19;19999;-69
2022/11/07 11:54:15;;;;;;;10.85;2.60;;;;;;;;;;7390192;19;20448;-68
2022/11/07 11:56:52;;;;;;;8.85;1.90;;;;;;;;;;7390602;19;20010;-69
2022/11/07 11:59:33;;;;;;;8.98;2.00;;;;;;;;;;7388054;19;19999;-68
2022/11/07 12:02:37;;;;;;;6.30;1.80;;;;;;;;;;7389025;19;20002;-69
2022/11/07 12:05:14;;;;;;;8.18;2.03;;;;;;;;;;7387573;19;19994;-69
2022/11/07 12:08:27;;;;;;;8.30;2.00;;;;;;;;;;7388998;19;20002;-68
2022/11/07 12:11:01;;;;;;;6.57;1.75;;;;;;;;;;7386750;19;20015;-70
2022/11/07 12:13:34;;;;;;;4.80;1.48;;;;;;;;;;7388453;19;19994;-70
2022/11/07 12:16:18;;;;;;;7.68;2.08;;;;;;;;;;7397120;19;20029;-69
2022/11/07 12:19:16;;;;;;;5.50;1.70;;;;;;;;;;7394760;19;20018;-71
2022/11/07 12:21:55;;;;;;;7.10;2.03;;;;;;;;;;7395416;19;19998;-70
2022/11/07 12:24:28;;;;;;;7.25;1.77;;;;;;;;;;7372176;19;20007;-70
2022/11/07 12:27:18;;;;;;;7.82;2.10;;;;;;;;;;7393805;19;20464;-70
2022/11/07 12:29:47;;;;;;;7.55;1.73;;;;;;;;;;7393984;19;19999;-70
2022/11/07 12:32:25;;;;;;;8.30;1.70;;;;;;;;;;7395239;19;19999;-70
2022/11/07 12:35:24;;;;;;;5.95;1.38;;;;;;;;;;7393318;19;20365;-70
2022/11/07 12:38:21;;;;;;;8.00;1.92;;;;;;;;;;7393860;19;20444;-70
2022/11/07 12:40:49;;;;;;;6.93;1.80;;;;;;;;;;7395775;19;20003;-70
2022/11/07 12:43:36;;;;;;;6.32;1.77;;;;;;;;;;7395026;19;19999;-70
2022/11/07 12:46:26;;;;;;;5.53;1.70;;;;;;;;;;7396426;19;20034;-70
2022/11/07 12:49:16;;;;;;;4.93;1.43;;;;;;;;;;7392931;19;20014;-70
2022/11/07 12:51:58;;;;;;;9.85;2.00;;;;;;;;;;7393339;19;20020;-70
2022/11/07 12:54:32;;;;;;;9.68;1.80;;;;;;;;;;7396484;19;20464;-70
2022/11/07 12:57:02;;;;;;;5.78;1.70;;;;;;;;;;7393512;19;20006;-69
2022/11/07 12:59:31;;;;;;;7.47;1.98;;;;;;;;;;7394293;19;19999;-70
2022/11/07 13:02:39;;;;;;;5.65;1.77;;;;;;;;;;7394245;19;20019;-70
2022/11/07 13:05:32;;;;;;;7.43;1.88;;;;;;;;;;7396581;19;20026;-70
2022/11/07 13:08:23;;;;;;;8.52;1.98;;;;;;;;;;7395536;19;20009;-70
2022/11/07 13:11:09;;;;;;;6.22;2.03;;;;;;;;;;7397271;19;20005;-69
2022/11/07 13:14:02;;;;;;;11.57;2.00;;;;;;;;;;7338672;19;1005064;-68
2022/11/07 13:16:30;;;;;;;8.00;2.10;;;;;;;;;;7396119;19;20030;-70
2022/11/07 13:19:19;;;;;;;6.10;2.03;;;;;;;;;;7393431;19;19999;-69
2022/11/07 13:21:45;;;;;;;7.03;2.15;;;;;;;;;;7393396;19;20013;-70
2022/11/07 13:24:20;;;;;;;9.02;2.13;;;;;;;;;;7395914;19;19995;-69
2022/11/07 13:26:48;;;;;;;6.13;1.80;;;;;;;;;;7395500;19;19995;-69
2022/11/07 13:29:23;;;;;;;6.85;1.55;;;;;;;;;;7392974;19;19995;-70
2022/11/07 13:32:03;;;;;;;7.85;1.80;;;;;;;;;;7389464;19;20019;-70
2022/11/07 13:34:28;;;;;;;4.93;1.80;;;;;;;;;;7395807;19;19994;-69
2022/11/07 13:37:00;;;;;;;7.68;1.90;;;;;;;;;;7391901;19;20018;-69
2022/11/07 13:39:28;;;;;;;4.05;1.83;;;;;;;;;;7392970;19;20002;-70
2022/11/07 13:41:54;;;;;;;7.13;1.85;;;;;;;;;;7393293;19;20007;-70
2022/11/07 13:44:25;;;;;;;4.90;1.75;;;;;;;;;;7392891;19;19995;-69
2022/11/07 13:46:54;;;;;;;;;;;;;;;;;;7392573;19;19990;-69
2022/11/07 13:49:25;;;;;;;8.32;1.95;;;;;;;;;;7393082;19;19919;-69
2022/11/07 13:51:52;;;;;;;7.03;1.90;;;;;;;;;;7391004;19;20026;-69
2022/11/07 13:54:26;;;;;;;7.03;1.98;;;;;;;;;;7395346;19;20001;-69
2022/11/07 13:57:07;;;;;;;6.65;2.03;;;;;;;;;;7390915;19;20081;-69
2022/11/07 14:00:00;;;;;;;5.38;2.10;;;;;;;;;;7392406;19;19994;-70
2022/11/07 14:02:31;;;;;;;5.05;1.80;;;;;;;;;;7391680;19;20014;-70
2022/11/07 14:05:06;;;;;;;7.50;2.05;;;;;;;;;;7391890;19;19998;-69
2022/11/07 14:07:35;;;;;;;8.43;2.00;;;;;;;;;;7390978;19;20006;-69
2022/11/07 14:10:01;;;;;;;6.18;1.80;;;;;;;;;;7392787;19;20005;-69
2022/11/07 14:12:27;;;;;;;10.00;2.03;;;;;;;;;;7392858;19;20006;-69
2022/11/07 14:14:55;;;;;;;10.07;2.05;;;;;;;;;;7391423;19;20623;-69
2022/11/07 14:17:26;;;;;;;5.20;1.58;;;;;;;;;;7390336;19;20006;-70
2022/11/07 14:19:51;;;;;;;3.63;2.00;;;;;;;;;;7392522;19;20006;-69
2022/11/07 14:22:22;;;;;;;9.80;2.00;;;;;;;;;;7390846;19;19998;-69
2022/11/07 14:24:56;;;;;;;8.45;2.15;;;;;;;;;;7393011;19;20009;-69
2022/11/07 14:27:22;;;;;;;7.18;2.10;;;;;;;;;;7391870;19;20003;-70
2022/11/07 14:29:53;;;;;;;11.18;2.38;;;;;;;;;;7391094;19;20026;-69
2022/11/07 14:32:18;;;;;;;7.82;2.13;;;;;;;;;;7391698;19;20211;-69
2022/11/07 14:34:47;;;;;;;6.38;1.90;;;;;;;;;;7393607;19;20046;-69
2022/11/07 14:37:15;;;;;;;9.95;2.40;;;;;;;;;;7387551;19;20066;-69
2022/11/07 14:39:41;;;;;;;7.80;2.17;;;;;;;;;;7391566;19;20468;-68
2022/11/07 14:42:07;;;;;;;6.65;2.15;;;;;;;;;;7390948;19;19998;-69
2022/11/07 14:44:41;;;;;;;9.30;2.10;;;;;;;;;;7392965;19;20476;-69
2022/11/07 14:47:14;;;;;;;6.25;1.90;;;;;;;;;;7390500;19;20089;-70
2022/11/07 14:49:45;;;;;;;6.47;1.92;;;;;;;;;;7391753;19;19999;-69
2022/11/07 14:52:16;;;;;;;;;;;;;;;;;;7392397;19;20353;-69
2022/11/07 14:54:43;;;;;;;6.78;2.03;;;;;;;;;;7392660;19;19934;-69
2022/11/07 14:57:11;;;;;;;10.13;2.35;;;;;;;;;;7389300;19;20005;-69
2022/11/07 14:59:37;;;;;;;5.68;1.90;;;;;;;;;;7389148;19;20038;-69
2022/11/07 15:02:11;;;;;;;8.00;2.20;;;;;;;;;;7389752;19;19999;-69
2022/11/07 15:04:45;;;;;;;7.32;2.17;;;;;;;;;;7392950;19;19999;-69
2022/11/07 15:07:22;;;;;;;8.85;1.98;;;;;;;;;;7390108;19;20068;-69